Danville, Kansas
Current Conditions -  °F | °C
As of 6:53 PM on Saturday 22 Nov 2014 (Local Time) from KICT Reporting Station
Overcast Overcast  
Wind Chill: 57°   Ceiling: 1000
Heat Index: 57°   Visibility: 10mi
Dew Point: 52°   Wind: 15mph
Humidity: 83%   Direction: 170°S
Pressure: 29.71"   Gusts: NA
Location:  37.29°N, 97.89°W
Report Text: KICT 230053Z 17013KT 10SM OVC010 14/11 A2971 RMK AO2 SLP060 T01390111
Loading
Personal Weather Stations






























Interactive Weather Map New forecast layout! Learn more

10-Day Weather Forecast

Advertisements
Track Severe Weather on mobile